FNE1002 MROC-SEGU
Flight info
| Callsign | FNE1002 |
|---|---|
| Flight time | 1h 56m |
| Altitude | 41000 |
| Route | DOTAS4D DRAKE UM659 ANRAX DCT MNV DCT ASDEL ASDEL2 |
| Aircraft | B738/M-SDE2E3FGHIRWXY/LB1 |
Departure
| Time | 2026-04-22 23:49 |
|---|---|
| Airport | Juan Santamaría International Airport (MROC) |
Arrival
| Time | 2026-04-23 01:45 |
|---|---|
| Airport | José Joaquín de Olmedo International Airport (SEGU) |
| Time | Latitude | Longitude | Altitude | Speed | Heading |
|---|---|---|---|---|---|
| 2026-04-22 23:41 | 9.99489 | -84.21246 | 3002 ft | 1 kts | 69° |
| 2026-04-22 23:44 | 9.99500 | -84.21202 | 3009 ft | 8 kts | 98° |
| 2026-04-22 23:45 | 9.99444 | -84.21187 | 3005 ft | 14 kts | 185° |
| 2026-04-22 23:45 | 9.99362 | -84.21198 | 3003 ft | 1 kts | 168° |
| 2026-04-22 23:45 | 9.99352 | -84.21141 | 3004 ft | 16 kts | 62° |
| 2026-04-22 23:45 | 9.99422 | -84.21054 | 3014 ft | 16 kts | 63° |
| 2026-04-22 23:46 | 9.99472 | -84.20931 | 3029 ft | 20 kts | 69° |
| 2026-04-22 23:46 | 9.99521 | -84.20793 | 3035 ft | 22 kts | 70° |
| 2026-04-22 23:46 | 9.99577 | -84.20642 | 3034 ft | 27 kts | 69° |
| 2026-04-22 23:46 | 9.99649 | -84.20452 | 3034 ft | 28 kts | 69° |
| 2026-04-22 23:47 | 9.99716 | -84.20279 | 3034 ft | 26 kts | 69° |
| 2026-04-22 23:47 | 9.99735 | -84.20158 | 3033 ft | 14 kts | 110° |
| 2026-04-22 23:47 | 9.99656 | -84.20158 | 3037 ft | 14 kts | 231° |
| 2026-04-22 23:47 | 9.99641 | -84.20213 | 3038 ft | 0 kts | 251° |
| 2026-04-22 23:48 | 9.99639 | -84.20217 | 3037 ft | 6 kts | 251° |
| 2026-04-22 23:48 | 9.99494 | -84.20609 | 3033 ft | 116 kts | 249° |
| 2026-04-22 23:49 | 9.99119 | -84.21667 | 3280 ft | 187 kts | 250° |
| 2026-04-22 23:49 | 9.98641 | -84.22920 | 4676 ft | 187 kts | 248° |
| 2026-04-22 23:49 | 9.98182 | -84.24156 | 5994 ft | 194 kts | 250° |
| 2026-04-22 23:49 | 9.97558 | -84.25437 | 6864 ft | 222 kts | 230° |
| 2026-04-22 23:50 | 9.96155 | -84.26309 | 7273 ft | 255 kts | 194° |
| 2026-04-22 23:50 | 9.94323 | -84.26662 | 7878 ft | 281 kts | 184° |
| 2026-04-22 23:50 | 9.92324 | -84.26528 | 8777 ft | 291 kts | 169° |
| 2026-04-22 23:50 | 9.90333 | -84.26220 | 9910 ft | 296 kts | 169° |
| 2026-04-22 23:51 | 9.88253 | -84.25907 | 10727 ft | 312 kts | 169° |
| 2026-04-22 23:51 | 9.85997 | -84.25598 | 11166 ft | 339 kts | 171° |
| 2026-04-22 23:51 | 9.83626 | -84.25298 | 11944 ft | 347 kts | 171° |
| 2026-04-22 23:51 | 9.81212 | -84.24999 | 12969 ft | 350 kts | 171° |
| 2026-04-22 23:52 | 9.78768 | -84.24696 | 13949 ft | 355 kts | 171° |
| 2026-04-22 23:52 | 9.76298 | -84.24388 | 14728 ft | 360 kts | 171° |
| 2026-04-22 23:52 | 9.73790 | -84.24068 | 15572 ft | 365 kts | 171° |
| 2026-04-22 23:52 | 9.71265 | -84.23740 | 16403 ft | 369 kts | 172° |
| 2026-04-22 23:53 | 9.68713 | -84.23399 | 17248 ft | 373 kts | 170° |
| 2026-04-22 23:53 | 9.66147 | -84.22906 | 18036 ft | 378 kts | 166° |
| 2026-04-22 23:53 | 9.63561 | -84.22303 | 18712 ft | 382 kts | 164° |
| 2026-04-22 23:53 | 9.60975 | -84.21671 | 19416 ft | 385 kts | 165° |
| 2026-04-22 23:54 | 9.58337 | -84.21024 | 20153 ft | 389 kts | 165° |
| 2026-04-22 23:54 | 9.55707 | -84.20387 | 20867 ft | 392 kts | 165° |
| 2026-04-22 23:54 | 9.53055 | -84.19754 | 21528 ft | 396 kts | 165° |
| 2026-04-22 23:54 | 9.50354 | -84.19116 | 22168 ft | 400 kts | 165° |
| 2026-04-22 23:55 | 9.47627 | -84.18478 | 22807 ft | 404 kts | 165° |
| 2026-04-22 23:55 | 9.44868 | -84.17834 | 23434 ft | 408 kts | 165° |
| 2026-04-22 23:55 | 9.42067 | -84.17181 | 23971 ft | 411 kts | 166° |
| 2026-04-22 23:55 | 9.39260 | -84.16528 | 24525 ft | 414 kts | 167° |
| 2026-04-22 23:56 | 9.36455 | -84.15877 | 25078 ft | 416 kts | 167° |
| 2026-04-22 23:56 | 9.33654 | -84.15227 | 25589 ft | 418 kts | 168° |
| 2026-04-22 23:56 | 9.30809 | -84.14567 | 26110 ft | 420 kts | 168° |
| 2026-04-22 23:56 | 9.27918 | -84.13897 | 26629 ft | 423 kts | 167° |
| 2026-04-22 23:57 | 9.25085 | -84.13239 | 27126 ft | 425 kts | 168° |
| 2026-04-22 23:57 | 9.22189 | -84.12566 | 27629 ft | 427 kts | 168° |
| 2026-04-22 23:57 | 9.19273 | -84.11890 | 28118 ft | 430 kts | 168° |
| 2026-04-22 23:57 | 9.16339 | -84.11208 | 28576 ft | 432 kts | 168° |
| 2026-04-22 23:58 | 9.13407 | -84.10527 | 29037 ft | 435 kts | 168° |
| 2026-04-22 23:58 | 9.10456 | -84.09843 | 29476 ft | 437 kts | 169° |
| 2026-04-22 23:58 | 9.07475 | -84.09152 | 29901 ft | 439 kts | 169° |
| 2026-04-22 23:58 | 9.04474 | -84.08456 | 30270 ft | 442 kts | 169° |
| 2026-04-22 23:59 | 9.01498 | -84.07765 | 30617 ft | 444 kts | 169° |
| 2026-04-22 23:59 | 8.98449 | -84.07058 | 30964 ft | 446 kts | 169° |
| 2026-04-22 23:59 | 8.95417 | -84.06355 | 31291 ft | 449 kts | 169° |
| 2026-04-22 23:59 | 8.92413 | -84.05658 | 31598 ft | 451 kts | 168° |
| 2026-04-23 00:00 | 8.86267 | -84.04233 | 32225 ft | 455 kts | 167° |
| 2026-04-23 00:00 | 8.84208 | -84.03756 | 32459 ft | 456 kts | 167° |
| 2026-04-23 00:00 | 8.80086 | -84.02799 | 33081 ft | 454 kts | 168° |
| 2026-04-23 00:01 | 8.77007 | -84.02086 | 33593 ft | 452 kts | 168° |
| 2026-04-23 00:01 | 8.73937 | -84.01376 | 34034 ft | 451 kts | 167° |
| 2026-04-23 00:01 | 8.70911 | -84.00676 | 34394 ft | 451 kts | 168° |
| 2026-04-23 00:01 | 8.67847 | -83.99938 | 34769 ft | 451 kts | 165° |
| 2026-04-23 00:02 | 8.64900 | -83.98911 | 35144 ft | 450 kts | 159° |
| 2026-04-23 00:02 | 8.61977 | -83.97765 | 35583 ft | 449 kts | 159° |
| 2026-04-23 00:02 | 8.59083 | -83.96600 | 35960 ft | 448 kts | 160° |
| 2026-04-23 00:02 | 8.56195 | -83.95436 | 36313 ft | 448 kts | 159° |
| 2026-04-23 00:03 | 8.53302 | -83.94278 | 36685 ft | 448 kts | 159° |
| 2026-04-23 00:03 | 8.50402 | -83.93127 | 37087 ft | 447 kts | 159° |
| 2026-04-23 00:03 | 8.47514 | -83.91986 | 37479 ft | 446 kts | 159° |
| 2026-04-23 00:03 | 8.44589 | -83.90837 | 37842 ft | 446 kts | 159° |
| 2026-04-23 00:04 | 8.41686 | -83.89700 | 38134 ft | 448 kts | 160° |
| 2026-04-23 00:04 | 8.38816 | -83.88577 | 38471 ft | 448 kts | 161° |
| 2026-04-23 00:04 | 8.35915 | -83.87444 | 38814 ft | 446 kts | 160° |
| 2026-04-23 00:04 | 8.33015 | -83.86311 | 39123 ft | 446 kts | 159° |
| 2026-04-23 00:05 | 8.30105 | -83.85174 | 39387 ft | 446 kts | 160° |
| 2026-04-23 00:05 | 8.27206 | -83.84041 | 39666 ft | 446 kts | 160° |
| 2026-04-23 00:05 | 8.24367 | -83.82932 | 39981 ft | 444 kts | 160° |
| 2026-04-23 00:05 | 8.21481 | -83.81805 | 40253 ft | 444 kts | 160° |
| 2026-04-23 00:06 | 8.18599 | -83.80678 | 40513 ft | 445 kts | 160° |
| 2026-04-23 00:06 | 8.15704 | -83.79546 | 40774 ft | 445 kts | 160° |
| 2026-04-23 00:06 | 8.12833 | -83.78424 | 40900 ft | 444 kts | 160° |
| 2026-04-23 00:07 | 8.07053 | -83.76166 | 40899 ft | 443 kts | 160° |
| 2026-04-23 00:07 | 8.01295 | -83.73918 | 40908 ft | 444 kts | 160° |
| 2026-04-23 00:08 | 7.95559 | -83.71680 | 40908 ft | 444 kts | 160° |
| 2026-04-23 00:08 | 7.89775 | -83.69423 | 40905 ft | 445 kts | 160° |
| 2026-04-23 00:09 | 7.84007 | -83.67174 | 40899 ft | 445 kts | 160° |
| 2026-04-23 00:09 | 7.79196 | -83.65298 | 40901 ft | 446 kts | 159° |
| 2026-04-23 00:10 | 7.72454 | -83.62670 | 40904 ft | 446 kts | 160° |
| 2026-04-23 00:10 | 7.67604 | -83.60779 | 40905 ft | 446 kts | 160° |
| 2026-04-23 00:11 | 7.61863 | -83.58543 | 40902 ft | 445 kts | 159° |
| 2026-04-23 00:11 | 7.56060 | -83.56282 | 40904 ft | 445 kts | 159° |
| 2026-04-23 00:12 | 7.50279 | -83.54032 | 40907 ft | 445 kts | 159° |
| 2026-04-23 00:12 | 7.44537 | -83.51796 | 40907 ft | 444 kts | 159° |
| 2026-04-23 00:13 | 7.38763 | -83.49549 | 40911 ft | 443 kts | 159° |
| 2026-04-23 00:13 | 7.33000 | -83.47307 | 40905 ft | 443 kts | 160° |
| 2026-04-23 00:14 | 7.27248 | -83.45070 | 40907 ft | 443 kts | 160° |
| 2026-04-23 00:14 | 7.21539 | -83.42850 | 40905 ft | 442 kts | 160° |
| 2026-04-23 00:15 | 7.15786 | -83.40613 | 40911 ft | 442 kts | 160° |
| 2026-04-23 00:15 | 7.10036 | -83.38379 | 40909 ft | 442 kts | 160° |
| 2026-04-23 00:16 | 7.04325 | -83.36160 | 40906 ft | 442 kts | 159° |
| 2026-04-23 00:16 | 6.98550 | -83.33917 | 40910 ft | 442 kts | 159° |
| 2026-04-23 00:17 | 6.92835 | -83.31697 | 40909 ft | 442 kts | 160° |
| 2026-04-23 00:17 | 6.87077 | -83.29462 | 40910 ft | 442 kts | 159° |
| 2026-04-23 00:18 | 6.81366 | -83.27245 | 40909 ft | 443 kts | 160° |
| 2026-04-23 00:18 | 6.75591 | -83.25005 | 40909 ft | 443 kts | 159° |
| 2026-04-23 00:19 | 6.69836 | -83.22772 | 40904 ft | 443 kts | 159° |
| 2026-04-23 00:19 | 6.64114 | -83.20553 | 40908 ft | 443 kts | 159° |
| 2026-04-23 00:20 | 6.58350 | -83.18318 | 40906 ft | 443 kts | 159° |
| 2026-04-23 00:20 | 6.52620 | -83.16097 | 40907 ft | 443 kts | 159° |
| 2026-04-23 00:21 | 6.46827 | -83.13852 | 40906 ft | 443 kts | 159° |
| 2026-04-23 00:21 | 6.41129 | -83.11644 | 40906 ft | 443 kts | 159° |
| 2026-04-23 00:22 | 6.35350 | -83.09406 | 40905 ft | 442 kts | 159° |
| 2026-04-23 00:22 | 6.29615 | -83.07185 | 40913 ft | 442 kts | 159° |
| 2026-04-23 00:23 | 6.23894 | -83.04970 | 40909 ft | 442 kts | 159° |
| 2026-04-23 00:23 | 6.18172 | -83.02755 | 40903 ft | 441 kts | 159° |
| 2026-04-23 00:24 | 6.12445 | -83.00539 | 40906 ft | 441 kts | 159° |
| 2026-04-23 00:24 | 6.06737 | -82.98330 | 40914 ft | 441 kts | 159° |
| 2026-04-23 00:25 | 6.00999 | -82.96110 | 40915 ft | 441 kts | 159° |
| 2026-04-23 00:25 | 5.95246 | -82.93884 | 40907 ft | 440 kts | 159° |
| 2026-04-23 00:26 | 5.89560 | -82.91686 | 40905 ft | 440 kts | 159° |
| 2026-04-23 00:26 | 5.83836 | -82.89494 | 40912 ft | 440 kts | 159° |
| 2026-04-23 00:27 | 5.78113 | -82.87315 | 40915 ft | 440 kts | 159° |
| 2026-04-23 00:27 | 5.72419 | -82.85146 | 40909 ft | 440 kts | 159° |
| 2026-04-23 00:28 | 5.66682 | -82.82959 | 40913 ft | 440 kts | 159° |
| 2026-04-23 00:28 | 5.60969 | -82.80780 | 40908 ft | 439 kts | 159° |
| 2026-04-23 00:29 | 5.55231 | -82.78592 | 40918 ft | 439 kts | 159° |
| 2026-04-23 00:29 | 5.49554 | -82.76427 | 40909 ft | 439 kts | 159° |
| 2026-04-23 00:30 | 5.43809 | -82.74237 | 40917 ft | 439 kts | 159° |
| 2026-04-23 00:30 | 5.38130 | -82.72073 | 40918 ft | 438 kts | 159° |
| 2026-04-23 00:31 | 5.32417 | -82.69896 | 40920 ft | 438 kts | 159° |
| 2026-04-23 00:31 | 5.26758 | -82.67740 | 40926 ft | 438 kts | 159° |
| 2026-04-23 00:32 | 5.21060 | -82.65570 | 40914 ft | 437 kts | 159° |
| 2026-04-23 00:32 | 5.15384 | -82.63409 | 40922 ft | 437 kts | 159° |
| 2026-04-23 00:33 | 5.09675 | -82.61235 | 40925 ft | 436 kts | 159° |
| 2026-04-23 00:33 | 5.04019 | -82.59082 | 40915 ft | 436 kts | 159° |
| 2026-04-23 00:34 | 4.98374 | -82.56934 | 40913 ft | 436 kts | 159° |
| 2026-04-23 00:34 | 4.92706 | -82.54777 | 40927 ft | 435 kts | 159° |
| 2026-04-23 00:35 | 4.87031 | -82.52618 | 40929 ft | 435 kts | 159° |
| 2026-04-23 00:35 | 4.81381 | -82.50469 | 40919 ft | 435 kts | 159° |
| 2026-04-23 00:36 | 4.75735 | -82.48321 | 40919 ft | 434 kts | 159° |
| 2026-04-23 00:36 | 4.70089 | -82.46174 | 40927 ft | 434 kts | 159° |
| 2026-04-23 00:37 | 4.64436 | -82.44025 | 40927 ft | 434 kts | 159° |
| 2026-04-23 00:37 | 4.58820 | -82.41889 | 40922 ft | 434 kts | 159° |
| 2026-04-23 00:38 | 4.53166 | -82.39741 | 40925 ft | 433 kts | 158° |
| 2026-04-23 00:38 | 4.47545 | -82.37601 | 40929 ft | 433 kts | 158° |
| 2026-04-23 00:39 | 4.41878 | -82.35440 | 40931 ft | 433 kts | 158° |
| 2026-04-23 00:39 | 4.36276 | -82.33303 | 40927 ft | 433 kts | 158° |
| 2026-04-23 00:40 | 4.30672 | -82.31167 | 40927 ft | 432 kts | 158° |
| 2026-04-23 00:40 | 4.25049 | -82.29023 | 40929 ft | 432 kts | 158° |
| 2026-04-23 00:41 | 4.19430 | -82.26882 | 40930 ft | 432 kts | 158° |
| 2026-04-23 00:41 | 4.13822 | -82.24745 | 40939 ft | 432 kts | 158° |
| 2026-04-23 00:42 | 4.08175 | -82.22594 | 40929 ft | 431 kts | 158° |
| 2026-04-23 00:42 | 4.02611 | -82.20474 | 40929 ft | 431 kts | 158° |
| 2026-04-23 00:43 | 3.96985 | -82.18332 | 40931 ft | 431 kts | 158° |
| 2026-04-23 00:43 | 3.91374 | -82.16195 | 40931 ft | 430 kts | 158° |
| 2026-04-23 00:44 | 3.85802 | -82.14073 | 40930 ft | 430 kts | 158° |
| 2026-04-23 00:44 | 3.80232 | -82.11952 | 40932 ft | 430 kts | 158° |
| 2026-04-23 00:45 | 3.74632 | -82.09821 | 40936 ft | 430 kts | 158° |
| 2026-04-23 00:45 | 3.69045 | -82.07694 | 40933 ft | 430 kts | 158° |
| 2026-04-23 00:46 | 3.63428 | -82.05556 | 40932 ft | 430 kts | 158° |
| 2026-04-23 00:46 | 3.57875 | -82.03442 | 40931 ft | 429 kts | 158° |
| 2026-04-23 00:47 | 3.52287 | -82.01317 | 40927 ft | 429 kts | 158° |
| 2026-04-23 00:47 | 3.46672 | -81.99190 | 40935 ft | 429 kts | 158° |
| 2026-04-23 00:48 | 3.41110 | -81.97086 | 40935 ft | 429 kts | 158° |
| 2026-04-23 00:48 | 3.35509 | -81.94966 | 40934 ft | 429 kts | 158° |
| 2026-04-23 00:49 | 3.29912 | -81.92847 | 40932 ft | 429 kts | 158° |
| 2026-04-23 00:49 | 3.24356 | -81.90744 | 40935 ft | 429 kts | 158° |
| 2026-04-23 00:50 | 3.18750 | -81.88622 | 40934 ft | 429 kts | 158° |
| 2026-04-23 00:50 | 3.13201 | -81.86521 | 40934 ft | 430 kts | 158° |
| 2026-04-23 00:51 | 3.07599 | -81.84401 | 40932 ft | 430 kts | 158° |
| 2026-04-23 00:51 | 3.01990 | -81.82279 | 40938 ft | 430 kts | 157° |
| 2026-04-23 00:52 | 2.96425 | -81.80173 | 40933 ft | 430 kts | 157° |
| 2026-04-23 00:52 | 2.90831 | -81.78057 | 40935 ft | 430 kts | 157° |
| 2026-04-23 00:53 | 2.85235 | -81.75940 | 40935 ft | 430 kts | 157° |
| 2026-04-23 00:53 | 2.79667 | -81.73834 | 40938 ft | 430 kts | 157° |
| 2026-04-23 00:54 | 2.74061 | -81.71713 | 40937 ft | 430 kts | 157° |
| 2026-04-23 00:54 | 2.68486 | -81.69605 | 40936 ft | 430 kts | 157° |
| 2026-04-23 00:55 | 2.62890 | -81.67489 | 40940 ft | 429 kts | 157° |
| 2026-04-23 00:55 | 2.57277 | -81.65367 | 40936 ft | 429 kts | 156° |
| 2026-04-23 00:56 | 2.51713 | -81.63263 | 40937 ft | 429 kts | 156° |
| 2026-04-23 00:56 | 2.46146 | -81.61158 | 40940 ft | 429 kts | 156° |
| 2026-04-23 00:57 | 2.40567 | -81.59050 | 40940 ft | 429 kts | 156° |
| 2026-04-23 00:57 | 2.34947 | -81.56925 | 40940 ft | 429 kts | 156° |
| 2026-04-23 00:58 | 2.29356 | -81.54812 | 40935 ft | 429 kts | 156° |
| 2026-04-23 00:58 | 2.23803 | -81.52714 | 40936 ft | 429 kts | 156° |
| 2026-04-23 00:59 | 2.18199 | -81.50596 | 40941 ft | 429 kts | 156° |
| 2026-04-23 00:59 | 2.13554 | -81.48840 | 40942 ft | 430 kts | 156° |
| 2026-04-23 01:00 | 2.07964 | -81.46729 | 40940 ft | 430 kts | 156° |
| 2026-04-23 01:00 | 2.01442 | -81.44265 | 40943 ft | 430 kts | 156° |
| 2026-04-23 01:01 | 1.96795 | -81.42509 | 40943 ft | 430 kts | 156° |
| 2026-04-23 01:01 | 1.91156 | -81.40379 | 40942 ft | 430 kts | 156° |
| 2026-04-23 01:02 | 1.85599 | -81.38280 | 40931 ft | 431 kts | 156° |
| 2026-04-23 01:02 | 1.79977 | -81.36156 | 40948 ft | 431 kts | 156° |
| 2026-04-23 01:03 | 1.74359 | -81.34034 | 40946 ft | 431 kts | 156° |
| 2026-04-23 01:03 | 1.68764 | -81.31922 | 40945 ft | 432 kts | 156° |
| 2026-04-23 01:04 | 1.63146 | -81.29800 | 40948 ft | 432 kts | 156° |
| 2026-04-23 01:04 | 1.54710 | -81.26614 | 40947 ft | 432 kts | 156° |
| 2026-04-23 01:05 | 1.49061 | -81.24480 | 40946 ft | 432 kts | 156° |
| 2026-04-23 01:05 | 1.43410 | -81.22347 | 40948 ft | 432 kts | 156° |
| 2026-04-23 01:06 | 1.37685 | -81.20606 | 40953 ft | 434 kts | 163° |
| 2026-04-23 01:06 | 1.31750 | -81.19257 | 40944 ft | 435 kts | 164° |
| 2026-04-23 01:07 | 1.25884 | -81.17939 | 40947 ft | 434 kts | 164° |
| 2026-04-23 01:07 | 1.19977 | -81.16573 | 40950 ft | 434 kts | 163° |
| 2026-04-23 01:08 | 1.14122 | -81.15196 | 40950 ft | 434 kts | 163° |
| 2026-04-23 01:08 | 1.08234 | -81.13805 | 40952 ft | 434 kts | 163° |
| 2026-04-23 01:09 | 1.02390 | -81.12425 | 40955 ft | 433 kts | 163° |
| 2026-04-23 01:09 | 0.96506 | -81.11036 | 40950 ft | 433 kts | 163° |
| 2026-04-23 01:10 | 0.90658 | -81.09655 | 40950 ft | 432 kts | 163° |
| 2026-04-23 01:10 | 0.84815 | -81.08277 | 40951 ft | 432 kts | 163° |
| 2026-04-23 01:11 | 0.78931 | -81.06888 | 40950 ft | 432 kts | 163° |
| 2026-04-23 01:11 | 0.73108 | -81.05514 | 40944 ft | 432 kts | 163° |
| 2026-04-23 01:12 | 0.67256 | -81.04133 | 40955 ft | 432 kts | 163° |
| 2026-04-23 01:12 | 0.61428 | -81.02758 | 40953 ft | 432 kts | 163° |
| 2026-04-23 01:13 | 0.55555 | -81.01372 | 40955 ft | 432 kts | 163° |
| 2026-04-23 01:13 | 0.49727 | -80.99997 | 40956 ft | 433 kts | 163° |
| 2026-04-23 01:14 | 0.43868 | -80.98614 | 40954 ft | 433 kts | 163° |
| 2026-04-23 01:14 | 0.37989 | -80.97227 | 40953 ft | 434 kts | 163° |
| 2026-04-23 01:15 | 0.32127 | -80.95844 | 40954 ft | 434 kts | 163° |
| 2026-04-23 01:15 | 0.26239 | -80.94455 | 40953 ft | 434 kts | 163° |
| 2026-04-23 01:16 | 0.20363 | -80.93068 | 40950 ft | 435 kts | 163° |
| 2026-04-23 01:16 | 0.14444 | -80.91672 | 40951 ft | 435 kts | 163° |
| 2026-04-23 01:17 | 0.08539 | -80.90279 | 40943 ft | 435 kts | 163° |
| 2026-04-23 01:17 | 0.02666 | -80.88893 | 40942 ft | 436 kts | 163° |
| 2026-04-23 01:18 | -0.03243 | -80.87499 | 40923 ft | 436 kts | 163° |
| 2026-04-23 01:18 | -0.09107 | -80.86115 | 40933 ft | 436 kts | 163° |
| 2026-04-23 01:19 | -0.15033 | -80.84717 | 40931 ft | 436 kts | 163° |
| 2026-04-23 01:19 | -0.20916 | -80.83329 | 40931 ft | 436 kts | 163° |
| 2026-04-23 01:20 | -0.26835 | -80.81933 | 40934 ft | 436 kts | 163° |
| 2026-04-23 01:20 | -0.32729 | -80.80542 | 40926 ft | 436 kts | 163° |
| 2026-04-23 01:21 | -0.38630 | -80.79148 | 40321 ft | 441 kts | 163° |
| 2026-04-23 01:21 | -0.41650 | -80.78436 | 39710 ft | 439 kts | 163° |
| 2026-04-23 01:21 | -0.44584 | -80.77744 | 39124 ft | 439 kts | 163° |
| 2026-04-23 01:22 | -0.47602 | -80.77032 | 38446 ft | 440 kts | 163° |
| 2026-04-23 01:22 | -0.50533 | -80.76341 | 37729 ft | 440 kts | 163° |
| 2026-04-23 01:22 | -0.53529 | -80.75634 | 37036 ft | 440 kts | 163° |
| 2026-04-23 01:22 | -0.56484 | -80.74937 | 36365 ft | 439 kts | 163° |
| 2026-04-23 01:23 | -0.59467 | -80.74233 | 35684 ft | 439 kts | 163° |
| 2026-04-23 01:23 | -0.62437 | -80.73532 | 34919 ft | 442 kts | 163° |
| 2026-04-23 01:23 | -0.65460 | -80.72818 | 34168 ft | 444 kts | 163° |
| 2026-04-23 01:23 | -0.68438 | -80.72115 | 33555 ft | 441 kts | 163° |
| 2026-04-23 01:24 | -0.71434 | -80.71409 | 32969 ft | 437 kts | 163° |
| 2026-04-23 01:24 | -0.74381 | -80.70714 | 32401 ft | 433 kts | 164° |
| 2026-04-23 01:24 | -0.77265 | -80.70034 | 31854 ft | 430 kts | 164° |
| 2026-04-23 01:24 | -0.80180 | -80.69346 | 31312 ft | 426 kts | 164° |
| 2026-04-23 01:25 | -0.83048 | -80.68668 | 30775 ft | 423 kts | 164° |
| 2026-04-23 01:25 | -0.85899 | -80.67995 | 30223 ft | 421 kts | 164° |
| 2026-04-23 01:25 | -0.88727 | -80.67328 | 29617 ft | 418 kts | 165° |
| 2026-04-23 01:25 | -0.91564 | -80.66633 | 29019 ft | 414 kts | 161° |
| 2026-04-23 01:26 | -0.94229 | -80.65620 | 28371 ft | 408 kts | 153° |
| 2026-04-23 01:26 | -0.96710 | -80.64167 | 27503 ft | 411 kts | 144° |
| 2026-04-23 01:26 | -0.99037 | -80.62583 | 26865 ft | 409 kts | 144° |
| 2026-04-23 01:26 | -1.01379 | -80.60985 | 26303 ft | 405 kts | 144° |
| 2026-04-23 01:27 | -1.03689 | -80.59418 | 25753 ft | 401 kts | 145° |
| 2026-04-23 01:27 | -1.06018 | -80.57849 | 25181 ft | 399 kts | 145° |
| 2026-04-23 01:27 | -1.08315 | -80.56310 | 24633 ft | 396 kts | 145° |
| 2026-04-23 01:27 | -1.10608 | -80.54776 | 24086 ft | 395 kts | 146° |
| 2026-04-23 01:28 | -1.12855 | -80.53276 | 23541 ft | 393 kts | 146° |
| 2026-04-23 01:28 | -1.15132 | -80.51755 | 22907 ft | 392 kts | 146° |
| 2026-04-23 01:28 | -1.17383 | -80.50251 | 22344 ft | 388 kts | 147° |
| 2026-04-23 01:28 | -1.19619 | -80.48758 | 21795 ft | 385 kts | 147° |
| 2026-04-23 01:29 | -1.21838 | -80.47255 | 21196 ft | 382 kts | 145° |
| 2026-04-23 01:29 | -1.23954 | -80.45652 | 20388 ft | 389 kts | 142° |
| 2026-04-23 01:29 | -1.26085 | -80.43930 | 19781 ft | 388 kts | 142° |
| 2026-04-23 01:29 | -1.28144 | -80.42242 | 19234 ft | 385 kts | 142° |
| 2026-04-23 01:30 | -1.30216 | -80.40549 | 18699 ft | 383 kts | 142° |
| 2026-04-23 01:30 | -1.32286 | -80.38871 | 18159 ft | 381 kts | 143° |
| 2026-04-23 01:30 | -1.34325 | -80.37229 | 17576 ft | 378 kts | 143° |
| 2026-04-23 01:30 | -1.36384 | -80.35579 | 17036 ft | 374 kts | 143° |
| 2026-04-23 01:31 | -1.38399 | -80.33967 | 16523 ft | 370 kts | 143° |
| 2026-04-23 01:31 | -1.40393 | -80.32374 | 16023 ft | 367 kts | 143° |
| 2026-04-23 01:31 | -1.42368 | -80.30796 | 15524 ft | 363 kts | 143° |
| 2026-04-23 01:31 | -1.44338 | -80.29224 | 15011 ft | 360 kts | 143° |
| 2026-04-23 01:32 | -1.46282 | -80.27671 | 14506 ft | 358 kts | 142° |
| 2026-04-23 01:32 | -1.48229 | -80.26115 | 14009 ft | 355 kts | 142° |
| 2026-04-23 01:32 | -1.50152 | -80.24579 | 13479 ft | 353 kts | 142° |
| 2026-04-23 01:32 | -1.52052 | -80.23060 | 12948 ft | 350 kts | 142° |
| 2026-04-23 01:33 | -1.53937 | -80.21554 | 12450 ft | 346 kts | 142° |
| 2026-04-23 01:33 | -1.55814 | -80.20053 | 11963 ft | 342 kts | 142° |
| 2026-04-23 01:33 | -1.57643 | -80.18581 | 11473 ft | 338 kts | 142° |
| 2026-04-23 01:33 | -1.59472 | -80.17103 | 11020 ft | 335 kts | 142° |
| 2026-04-23 01:34 | -1.61265 | -80.15652 | 10560 ft | 331 kts | 142° |
| 2026-04-23 01:34 | -1.63066 | -80.14197 | 10270 ft | 323 kts | 142° |
| 2026-04-23 01:34 | -1.64779 | -80.12811 | 10103 ft | 311 kts | 142° |
| 2026-04-23 01:34 | -1.66405 | -80.11497 | 9956 ft | 299 kts | 142° |
| 2026-04-23 01:35 | -1.68003 | -80.10205 | 9848 ft | 288 kts | 142° |
| 2026-04-23 01:35 | -1.69559 | -80.08948 | 9363 ft | 291 kts | 142° |
| 2026-04-23 01:35 | -1.71142 | -80.07669 | 9041 ft | 287 kts | 142° |
| 2026-04-23 01:35 | -1.72652 | -80.06449 | 8664 ft | 287 kts | 142° |
| 2026-04-23 01:36 | -1.74225 | -80.05178 | 8321 ft | 284 kts | 141° |
| 2026-04-23 01:36 | -1.75764 | -80.03935 | 7981 ft | 282 kts | 141° |
| 2026-04-23 01:36 | -1.77287 | -80.02705 | 7645 ft | 280 kts | 141° |
| 2026-04-23 01:36 | -1.78784 | -80.01495 | 7331 ft | 278 kts | 141° |
| 2026-04-23 01:37 | -1.80281 | -80.00285 | 7008 ft | 276 kts | 141° |
| 2026-04-23 01:37 | -1.81768 | -79.99083 | 6661 ft | 274 kts | 141° |
| 2026-04-23 01:37 | -1.83251 | -79.97885 | 6345 ft | 273 kts | 141° |
| 2026-04-23 01:37 | -1.84718 | -79.96699 | 6012 ft | 271 kts | 141° |
| 2026-04-23 01:38 | -1.86162 | -79.95532 | 5842 ft | 263 kts | 141° |
| 2026-04-23 01:38 | -1.87569 | -79.94394 | 5547 ft | 257 kts | 141° |
| 2026-04-23 01:38 | -1.88968 | -79.93263 | 5012 ft | 257 kts | 141° |
| 2026-04-23 01:38 | -1.90324 | -79.92167 | 4668 ft | 250 kts | 141° |
| 2026-04-23 01:39 | -1.91661 | -79.91086 | 4543 ft | 240 kts | 141° |
| 2026-04-23 01:39 | -1.92932 | -79.90060 | 4462 ft | 231 kts | 141° |
| 2026-04-23 01:39 | -1.94147 | -79.89078 | 4379 ft | 222 kts | 141° |
| 2026-04-23 01:39 | -1.95330 | -79.88118 | 4266 ft | 216 kts | 140° |
| 2026-04-23 01:40 | -1.96393 | -79.87110 | 4150 ft | 208 kts | 135° |
| 2026-04-23 01:40 | -1.97403 | -79.86098 | 4096 ft | 202 kts | 135° |
| 2026-04-23 01:40 | -1.98386 | -79.85115 | 4054 ft | 192 kts | 135° |
| 2026-04-23 01:40 | -1.99290 | -79.84216 | 3992 ft | 181 kts | 135° |
| 2026-04-23 01:41 | -2.00168 | -79.83347 | 3926 ft | 172 kts | 136° |
| 2026-04-23 01:41 | -2.00989 | -79.82534 | 3854 ft | 161 kts | 136° |
| 2026-04-23 01:41 | -2.01763 | -79.81768 | 3742 ft | 154 kts | 135° |
| 2026-04-23 01:41 | -2.02631 | -79.81198 | 3542 ft | 150 kts | 172° |
| 2026-04-23 01:42 | -2.03587 | -79.81474 | 3335 ft | 147 kts | 213° |
| 2026-04-23 01:42 | -2.04503 | -79.81940 | 3090 ft | 148 kts | 200° |
| 2026-04-23 01:42 | -2.05404 | -79.82359 | 2996 ft | 139 kts | 210° |
| 2026-04-23 01:42 | -2.06274 | -79.82870 | 2579 ft | 155 kts | 211° |
| 2026-04-23 01:43 | -2.07238 | -79.83433 | 2146 ft | 166 kts | 210° |
| 2026-04-23 01:43 | -2.08318 | -79.84055 | 1493 ft | 186 kts | 210° |
| 2026-04-23 01:43 | -2.09401 | -79.84687 | 1199 ft | 182 kts | 211° |
| 2026-04-23 01:43 | -2.10467 | -79.85314 | 979 ft | 172 kts | 210° |
| 2026-04-23 01:44 | -2.11457 | -79.85891 | 809 ft | 155 kts | 210° |
| 2026-04-23 01:44 | -2.12323 | -79.86391 | 631 ft | 134 kts | 211° |
| 2026-04-23 01:44 | -2.13069 | -79.86820 | 449 ft | 117 kts | 210° |
| 2026-04-23 01:44 | -2.13762 | -79.87216 | 319 ft | 110 kts | 211° |
| 2026-04-23 01:45 | -2.14419 | -79.87591 | 172 ft | 110 kts | 211° |
| 2026-04-23 01:45 | -2.15075 | -79.87971 | 42 ft | 111 kts | 212° |
| 2026-04-23 01:45 | -2.15671 | -79.88328 | 19 ft | 84 kts | 209° |
| 2026-04-23 01:45 | -2.16059 | -79.88551 | 21 ft | 37 kts | 210° |
| 2026-04-23 01:46 | -2.16268 | -79.88674 | 23 ft | 1 kts | 210° |
| 2026-04-23 01:46 | -2.16291 | -79.88687 | 23 ft | 9 kts | 210° |
| 2026-04-23 01:46 | -2.16338 | -79.88735 | 21 ft | 11 kts | 270° |
| 2026-04-23 01:46 | -2.16298 | -79.88793 | 21 ft | 11 kts | 356° |
| 2026-04-23 01:47 | -2.16206 | -79.88747 | 23 ft | 21 kts | 31° |
| 2026-04-23 01:47 | -2.16117 | -79.88694 | 22 ft | 23 kts | 31° |
| 2026-04-23 01:47 | -2.15929 | -79.88582 | 21 ft | 23 kts | 30° |
| 2026-04-23 01:47 | -2.15790 | -79.88504 | 23 ft | 22 kts | 29° |
| 2026-04-23 01:48 | -2.15654 | -79.88430 | 21 ft | 23 kts | 28° |
| 2026-04-23 01:48 | -2.15517 | -79.88351 | 21 ft | 23 kts | 30° |
| 2026-04-23 01:48 | -2.15429 | -79.88301 | 20 ft | 21 kts | 28° |
| 2026-04-23 01:48 | -2.15327 | -79.88238 | 20 ft | 15 kts | 33° |
| 2026-04-23 01:49 | -2.15271 | -79.88228 | 21 ft | 5 kts | 334° |
| 2026-04-23 01:49 | -2.15230 | -79.88267 | 21 ft | 7 kts | 308° |
| 2026-04-23 01:49 | -2.15225 | -79.88273 | 21 ft | 1 kts | 308° |
| 2026-04-23 01:49 | -2.15222 | -79.88280 | 21 ft | 3 kts | 291° |
| 2026-04-23 01:50 | -2.15179 | -79.88373 | 21 ft | 21 kts | 295° |
| 2026-04-23 01:50 | -2.15185 | -79.88427 | 22 ft | 0 kts | 232° |